sensor_id;sensor_type;location;lat;lon;timestamp;P1;durP1;ratioP1;P2;durP2;ratioP2
665;SDS011;315;48.738;9.126;2023-04-06T00:01:34;11.17;;;9.63;;
665;SDS011;315;48.738;9.126;2023-04-06T00:03:59;10.20;;;9.20;;
665;SDS011;315;48.738;9.126;2023-04-06T00:06:25;14.80;;;9.40;;
665;SDS011;315;48.738;9.126;2023-04-06T00:08:51;10.90;;;9.50;;
665;SDS011;315;48.738;9.126;2023-04-06T00:11:17;16.00;;;9.77;;
665;SDS011;315;48.738;9.126;2023-04-06T00:13:42;11.47;;;8.73;;
665;SDS011;315;48.738;9.126;2023-04-06T00:16:08;9.77;;;8.77;;
665;SDS011;315;48.738;9.126;2023-04-06T00:18:33;12.77;;;10.60;;
665;SDS011;315;48.738;9.126;2023-04-06T00:20:59;12.13;;;9.57;;
665;SDS011;315;48.738;9.126;2023-04-06T00:23:24;11.77;;;9.60;;
665;SDS011;315;48.738;9.126;2023-04-06T00:25:50;11.43;;;9.50;;
665;SDS011;315;48.738;9.126;2023-04-06T00:28:15;10.47;;;9.43;;
665;SDS011;315;48.738;9.126;2023-04-06T00:30:41;13.30;;;9.83;;
665;SDS011;315;48.738;9.126;2023-04-06T00:33:07;10.77;;;9.10;;
665;SDS011;315;48.738;9.126;2023-04-06T00:35:32;11.77;;;9.40;;
665;SDS011;315;48.738;9.126;2023-04-06T00:37:58;13.23;;;9.33;;
665;SDS011;315;48.738;9.126;2023-04-06T00:40:23;12.90;;;9.73;;
665;SDS011;315;48.738;9.126;2023-04-06T00:42:49;11.50;;;10.40;;
665;SDS011;315;48.738;9.126;2023-04-06T00:45:15;10.70;;;9.60;;
665;SDS011;315;48.738;9.126;2023-04-06T00:47:40;11.37;;;9.13;;
665;SDS011;315;48.738;9.126;2023-04-06T00:50:06;13.13;;;11.73;;
665;SDS011;315;48.738;9.126;2023-04-06T00:52:33;12.47;;;10.80;;
665;SDS011;315;48.738;9.126;2023-04-06T00:54:59;10.40;;;9.33;;
665;SDS011;315;48.738;9.126;2023-04-06T00:57:24;11.13;;;10.00;;
665;SDS011;315;48.738;9.126;2023-04-06T00:59:50;13.27;;;10.57;;
665;SDS011;315;48.738;9.126;2023-04-06T01:02:17;9.53;;;8.63;;
665;SDS011;315;48.738;9.126;2023-04-06T01:04:43;12.07;;;10.63;;
665;SDS011;315;48.738;9.126;2023-04-06T01:07:09;11.80;;;9.43;;
665;SDS011;315;48.738;9.126;2023-04-06T01:09:34;12.97;;;8.80;;
665;SDS011;315;48.738;9.126;2023-04-06T01:12:00;11.40;;;9.87;;
665;SDS011;315;48.738;9.126;2023-04-06T01:14:26;10.23;;;9.23;;
665;SDS011;315;48.738;9.126;2023-04-06T01:16:51;12.80;;;9.47;;
665;SDS011;315;48.738;9.126;2023-04-06T01:19:17;12.70;;;10.60;;
665;SDS011;315;48.738;9.126;2023-04-06T01:21:43;10.87;;;9.77;;
665;SDS011;315;48.738;9.126;2023-04-06T01:24:08;13.70;;;9.20;;
665;SDS011;315;48.738;9.126;2023-04-06T01:26:35;10.20;;;9.17;;
665;SDS011;315;48.738;9.126;2023-04-06T01:29:02;11.17;;;9.43;;
665;SDS011;315;48.738;9.126;2023-04-06T01:31:28;10.50;;;9.40;;
665;SDS011;315;48.738;9.126;2023-04-06T01:33:54;11.93;;;9.80;;
665;SDS011;315;48.738;9.126;2023-04-06T01:36:20;13.43;;;11.30;;
665;SDS011;315;48.738;9.126;2023-04-06T01:38:46;13.80;;;10.10;;
665;SDS011;315;48.738;9.126;2023-04-06T01:41:11;12.20;;;10.70;;
665;SDS011;315;48.738;9.126;2023-04-06T01:43:37;12.30;;;9.47;;
665;SDS011;315;48.738;9.126;2023-04-06T01:46:03;11.73;;;10.43;;
665;SDS011;315;48.738;9.126;2023-04-06T01:48:29;10.60;;;8.83;;
665;SDS011;315;48.738;9.126;2023-04-06T01:50:55;10.73;;;8.53;;
665;SDS011;315;48.738;9.126;2023-04-06T01:53:20;11.97;;;9.50;;
665;SDS011;315;48.738;9.126;2023-04-06T01:55:46;11.20;;;9.60;;
665;SDS011;315;48.738;9.126;2023-04-06T01:58:12;13.50;;;10.30;;
665;SDS011;315;48.738;9.126;2023-04-06T02:00:38;11.50;;;10.30;;
665;SDS011;315;48.738;9.126;2023-04-06T02:03:04;12.40;;;9.03;;
665;SDS011;315;48.738;9.126;2023-04-06T02:05:30;14.10;;;9.70;;
665;SDS011;315;48.738;9.126;2023-04-06T02:07:58;11.67;;;9.90;;
665;SDS011;315;48.738;9.126;2023-04-06T02:10:23;13.53;;;10.47;;
665;SDS011;315;48.738;9.126;2023-04-06T02:12:49;10.90;;;9.70;;
665;SDS011;315;48.738;9.126;2023-04-06T02:15:15;11.00;;;9.60;;
665;SDS011;315;48.738;9.126;2023-04-06T02:17:41;11.13;;;9.37;;
665;SDS011;315;48.738;9.126;2023-04-06T02:20:07;13.70;;;10.17;;
665;SDS011;315;48.738;9.126;2023-04-06T02:22:34;14.23;;;10.40;;
665;SDS011;315;48.738;9.126;2023-04-06T02:25:00;13.67;;;10.80;;
665;SDS011;315;48.738;9.126;2023-04-06T02:27:26;14.37;;;10.00;;
665;SDS011;315;48.738;9.126;2023-04-06T02:29:51;11.70;;;10.20;;
665;SDS011;315;48.738;9.126;2023-04-06T02:32:17;11.73;;;10.53;;
665;SDS011;315;48.738;9.126;2023-04-06T02:34:42;10.80;;;9.40;;
665;SDS011;315;48.738;9.126;2023-04-06T02:37:08;11.40;;;8.97;;
665;SDS011;315;48.738;9.126;2023-04-06T02:39:33;11.17;;;10.07;;
665;SDS011;315;48.738;9.126;2023-04-06T02:41:59;13.10;;;11.23;;
665;SDS011;315;48.738;9.126;2023-04-06T02:44:24;11.60;;;10.20;;
665;SDS011;315;48.738;9.126;2023-04-06T02:46:50;12.13;;;10.83;;
665;SDS011;315;48.738;9.126;2023-04-06T02:49:15;13.33;;;9.23;;
665;SDS011;315;48.738;9.126;2023-04-06T02:51:41;11.30;;;10.10;;
665;SDS011;315;48.738;9.126;2023-04-06T02:54:07;17.40;;;13.37;;
665;SDS011;315;48.738;9.126;2023-04-06T02:56:32;16.60;;;12.83;;
665;SDS011;315;48.738;9.126;2023-04-06T02:58:58;12.90;;;10.83;;
665;SDS011;315;48.738;9.126;2023-04-06T03:01:23;10.70;;;9.60;;
665;SDS011;315;48.738;9.126;2023-04-06T03:03:49;10.43;;;9.27;;
665;SDS011;315;48.738;9.126;2023-04-06T03:06:14;15.03;;;10.93;;
665;SDS011;315;48.738;9.126;2023-04-06T03:08:40;12.40;;;8.97;;
665;SDS011;315;48.738;9.126;2023-04-06T03:11:05;14.90;;;10.10;;
665;SDS011;315;48.738;9.126;2023-04-06T03:13:31;14.83;;;10.23;;
665;SDS011;315;48.738;9.126;2023-04-06T03:15:56;13.23;;;9.53;;
665;SDS011;315;48.738;9.126;2023-04-06T03:18:22;13.27;;;9.50;;
665;SDS011;315;48.738;9.126;2023-04-06T03:20:49;12.10;;;10.47;;
665;SDS011;315;48.738;9.126;2023-04-06T03:23:15;13.00;;;10.37;;
665;SDS011;315;48.738;9.126;2023-04-06T03:25:41;14.60;;;10.17;;
665;SDS011;315;48.738;9.126;2023-04-06T03:28:06;14.13;;;10.00;;
665;SDS011;315;48.738;9.126;2023-04-06T03:30:32;15.33;;;10.10;;
665;SDS011;315;48.738;9.126;2023-04-06T03:32:58;18.47;;;10.60;;
665;SDS011;315;48.738;9.126;2023-04-06T03:35:24;13.67;;;11.00;;
665;SDS011;315;48.738;9.126;2023-04-06T03:37:49;15.40;;;10.67;;
665;SDS011;315;48.738;9.126;2023-04-06T03:40:15;14.93;;;10.40;;
665;SDS011;315;48.738;9.126;2023-04-06T03:42:40;13.47;;;10.60;;
665;SDS011;315;48.738;9.126;2023-04-06T03:45:06;14.10;;;10.97;;
665;SDS011;315;48.738;9.126;2023-04-06T03:47:32;13.80;;;10.20;;
665;SDS011;315;48.738;9.126;2023-04-06T03:49:58;15.53;;;12.30;;
665;SDS011;315;48.738;9.126;2023-04-06T03:52:23;14.27;;;9.80;;
665;SDS011;315;48.738;9.126;2023-04-06T03:54:49;13.43;;;10.37;;
665;SDS011;315;48.738;9.126;2023-04-06T03:57:14;14.33;;;10.40;;
665;SDS011;315;48.738;9.126;2023-04-06T03:59:40;15.97;;;10.80;;
665;SDS011;315;48.738;9.126;2023-04-06T04:02:06;11.93;;;9.93;;
665;SDS011;315;48.738;9.126;2023-04-06T04:04:31;15.83;;;12.10;;
665;SDS011;315;48.738;9.126;2023-04-06T04:06:56;14.63;;;12.90;;
665;SDS011;315;48.738;9.126;2023-04-06T04:09:22;12.90;;;10.90;;
665;SDS011;315;48.738;9.126;2023-04-06T04:11:48;14.10;;;9.80;;
665;SDS011;315;48.738;9.126;2023-04-06T04:14:13;19.73;;;11.83;;
665;SDS011;315;48.738;9.126;2023-04-06T04:16:39;14.90;;;11.00;;
665;SDS011;315;48.738;9.126;2023-04-06T04:19:06;15.93;;;10.20;;
665;SDS011;315;48.738;9.126;2023-04-06T04:21:31;10.77;;;9.07;;
665;SDS011;315;48.738;9.126;2023-04-06T04:23:57;15.53;;;10.73;;
665;SDS011;315;48.738;9.126;2023-04-06T04:26:22;19.53;;;10.10;;
665;SDS011;315;48.738;9.126;2023-04-06T04:28:48;11.33;;;10.07;;
665;SDS011;315;48.738;9.126;2023-04-06T04:31:13;12.90;;;10.33;;
665;SDS011;315;48.738;9.126;2023-04-06T04:33:39;13.80;;;9.50;;
665;SDS011;315;48.738;9.126;2023-04-06T04:36:05;14.30;;;10.80;;
665;SDS011;315;48.738;9.126;2023-04-06T04:38:30;11.50;;;10.27;;
665;SDS011;315;48.738;9.126;2023-04-06T04:40:56;13.50;;;10.67;;
665;SDS011;315;48.738;9.126;2023-04-06T04:43:21;10.93;;;9.83;;
665;SDS011;315;48.738;9.126;2023-04-06T04:45:47;17.30;;;11.47;;
665;SDS011;315;48.738;9.126;2023-04-06T04:48:12;11.70;;;10.50;;
665;SDS011;315;48.738;9.126;2023-04-06T04:50:38;11.23;;;10.13;;
665;SDS011;315;48.738;9.126;2023-04-06T04:53:03;19.40;;;13.70;;
665;SDS011;315;48.738;9.126;2023-04-06T04:55:32;16.10;;;12.17;;
665;SDS011;315;48.738;9.126;2023-04-06T04:57:58;16.87;;;12.20;;
665;SDS011;315;48.738;9.126;2023-04-06T05:00:23;14.90;;;11.73;;
665;SDS011;315;48.738;9.126;2023-04-06T05:02:49;16.20;;;11.70;;
665;SDS011;315;48.738;9.126;2023-04-06T05:05:15;16.77;;;13.50;;
665;SDS011;315;48.738;9.126;2023-04-06T05:07:40;11.33;;;9.97;;
665;SDS011;315;48.738;9.126;2023-04-06T05:10:06;11.90;;;9.70;;
665;SDS011;315;48.738;9.126;2023-04-06T05:12:32;12.10;;;10.90;;
665;SDS011;315;48.738;9.126;2023-04-06T05:14:57;15.33;;;10.33;;
665;SDS011;315;48.738;9.126;2023-04-06T05:17:23;15.43;;;11.27;;
665;SDS011;315;48.738;9.126;2023-04-06T05:19:48;13.43;;;11.00;;
665;SDS011;315;48.738;9.126;2023-04-06T05:22:14;15.07;;;11.07;;
665;SDS011;315;48.738;9.126;2023-04-06T05:24:42;14.67;;;10.30;;
665;SDS011;315;48.738;9.126;2023-04-06T05:27:08;13.87;;;11.93;;
665;SDS011;315;48.738;9.126;2023-04-06T05:29:33;13.23;;;11.77;;
665;SDS011;315;48.738;9.126;2023-04-06T05:31:59;16.03;;;10.67;;
665;SDS011;315;48.738;9.126;2023-04-06T05:34:25;13.67;;;12.27;;
665;SDS011;315;48.738;9.126;2023-04-06T05:36:50;12.60;;;10.43;;
665;SDS011;315;48.738;9.126;2023-04-06T05:39:16;12.03;;;10.73;;
665;SDS011;315;48.738;9.126;2023-04-06T05:41:41;16.00;;;10.67;;
665;SDS011;315;48.738;9.126;2023-04-06T05:44:07;14.63;;;12.50;;
665;SDS011;315;48.738;9.126;2023-04-06T05:46:32;17.03;;;12.27;;
665;SDS011;315;48.738;9.126;2023-04-06T05:48:58;18.53;;;11.77;;
665;SDS011;315;48.738;9.126;2023-04-06T05:51:23;15.27;;;12.33;;
665;SDS011;315;48.738;9.126;2023-04-06T05:53:49;15.67;;;12.43;;
665;SDS011;315;48.738;9.126;2023-04-06T05:56:15;15.17;;;12.00;;
665;SDS011;315;48.738;9.126;2023-04-06T05:58:41;20.57;;;14.10;;
665;SDS011;315;48.738;9.126;2023-04-06T06:01:06;14.90;;;11.57;;
665;SDS011;315;48.738;9.126;2023-04-06T06:03:33;15.20;;;11.23;;
665;SDS011;315;48.738;9.126;2023-04-06T06:06:02;18.57;;;11.90;;
665;SDS011;315;48.738;9.126;2023-04-06T06:08:28;18.47;;;13.50;;
665;SDS011;315;48.738;9.126;2023-04-06T06:10:54;17.03;;;12.43;;
665;SDS011;315;48.738;9.126;2023-04-06T06:13:21;14.57;;;11.80;;
665;SDS011;315;48.738;9.126;2023-04-06T06:15:47;16.30;;;11.50;;
665;SDS011;315;48.738;9.126;2023-04-06T06:18:13;13.87;;;12.37;;
665;SDS011;315;48.738;9.126;2023-04-06T06:20:38;13.77;;;11.73;;
665;SDS011;315;48.738;9.126;2023-04-06T06:23:04;14.13;;;11.80;;
665;SDS011;315;48.738;9.126;2023-04-06T06:25:29;15.47;;;11.60;;
665;SDS011;315;48.738;9.126;2023-04-06T06:27:58;14.77;;;11.57;;
665;SDS011;315;48.738;9.126;2023-04-06T06:30:24;15.00;;;11.33;;
665;SDS011;315;48.738;9.126;2023-04-06T06:32:50;14.83;;;11.30;;
665;SDS011;315;48.738;9.126;2023-04-06T06:35:15;14.23;;;12.40;;
665;SDS011;315;48.738;9.126;2023-04-06T06:37:41;13.50;;;10.73;;
665;SDS011;315;48.738;9.126;2023-04-06T06:40:08;12.13;;;10.93;;
665;SDS011;315;48.738;9.126;2023-04-06T06:42:35;15.97;;;11.23;;
665;SDS011;315;48.738;9.126;2023-04-06T06:45:01;12.07;;;10.70;;
665;SDS011;315;48.738;9.126;2023-04-06T06:47:26;11.43;;;10.37;;
665;SDS011;315;48.738;9.126;2023-04-06T06:49:52;13.57;;;10.43;;
665;SDS011;315;48.738;9.126;2023-04-06T06:52:17;12.37;;;10.70;;
665;SDS011;315;48.738;9.126;2023-04-06T06:54:43;13.77;;;11.37;;
665;SDS011;315;48.738;9.126;2023-04-06T06:57:09;15.13;;;11.10;;
665;SDS011;315;48.738;9.126;2023-04-06T06:59:34;11.37;;;9.80;;
665;SDS011;315;48.738;9.126;2023-04-06T07:02:00;11.60;;;10.23;;
665;SDS011;315;48.738;9.126;2023-04-06T07:04:26;14.63;;;11.07;;
665;SDS011;315;48.738;9.126;2023-04-06T07:06:51;19.73;;;14.30;;
665;SDS011;315;48.738;9.126;2023-04-06T07:09:17;14.00;;;12.10;;
665;SDS011;315;48.738;9.126;2023-04-06T07:11:43;15.53;;;12.60;;
665;SDS011;315;48.738;9.126;2023-04-06T07:14:09;12.50;;;11.37;;
665;SDS011;315;48.738;9.126;2023-04-06T07:16:34;11.33;;;10.23;;
665;SDS011;315;48.738;9.126;2023-04-06T07:19:00;11.33;;;10.23;;
665;SDS011;315;48.738;9.126;2023-04-06T07:21:25;13.53;;;12.13;;
665;SDS011;315;48.738;9.126;2023-04-06T07:23:51;13.03;;;10.53;;
665;SDS011;315;48.738;9.126;2023-04-06T07:26:17;13.97;;;11.10;;
665;SDS011;315;48.738;9.126;2023-04-06T07:28:42;12.43;;;11.43;;
665;SDS011;315;48.738;9.126;2023-04-06T07:31:08;12.37;;;11.27;;
665;SDS011;315;48.738;9.126;2023-04-06T07:33:34;12.43;;;11.13;;
665;SDS011;315;48.738;9.126;2023-04-06T07:35:59;13.93;;;12.53;;
665;SDS011;315;48.738;9.126;2023-04-06T07:38:25;14.00;;;10.47;;
665;SDS011;315;48.738;9.126;2023-04-06T07:40:50;10.50;;;9.53;;
665;SDS011;315;48.738;9.126;2023-04-06T07:43:16;11.93;;;10.67;;
665;SDS011;315;48.738;9.126;2023-04-06T07:45:41;12.23;;;10.97;;
665;SDS011;315;48.738;9.126;2023-04-06T07:48:07;14.10;;;10.90;;
665;SDS011;315;48.738;9.126;2023-04-06T07:50:32;12.00;;;10.80;;
665;SDS011;315;48.738;9.126;2023-04-06T07:52:58;13.37;;;10.40;;
665;SDS011;315;48.738;9.126;2023-04-06T07:55:24;11.57;;;10.47;;
665;SDS011;315;48.738;9.126;2023-04-06T07:57:50;12.23;;;11.07;;
665;SDS011;315;48.738;9.126;2023-04-06T08:00:15;12.33;;;9.87;;
665;SDS011;315;48.738;9.126;2023-04-06T08:02:41;11.93;;;10.73;;
665;SDS011;315;48.738;9.126;2023-04-06T08:05:07;15.80;;;11.87;;
665;SDS011;315;48.738;9.126;2023-04-06T08:07:33;11.47;;;10.37;;
665;SDS011;315;48.738;9.126;2023-04-06T08:09:58;11.17;;;10.17;;
665;SDS011;315;48.738;9.126;2023-04-06T08:12:24;12.60;;;11.40;;
665;SDS011;315;48.738;9.126;2023-04-06T08:14:50;15.33;;;11.53;;
665;SDS011;315;48.738;9.126;2023-04-06T08:17:15;13.63;;;11.07;;
665;SDS011;315;48.738;9.126;2023-04-06T08:19:44;12.23;;;11.03;;
665;SDS011;315;48.738;9.126;2023-04-06T08:22:10;13.73;;;11.03;;
665;SDS011;315;48.738;9.126;2023-04-06T08:24:36;13.20;;;11.90;;
665;SDS011;315;48.738;9.126;2023-04-06T08:27:01;13.80;;;12.37;;
665;SDS011;315;48.738;9.126;2023-04-06T08:29:27;13.70;;;12.30;;
665;SDS011;315;48.738;9.126;2023-04-06T08:31:53;12.60;;;11.33;;
665;SDS011;315;48.738;9.126;2023-04-06T08:34:19;15.00;;;11.97;;
665;SDS011;315;48.738;9.126;2023-04-06T08:36:45;11.70;;;10.50;;
665;SDS011;315;48.738;9.126;2023-04-06T08:39:11;17.97;;;12.50;;
665;SDS011;315;48.738;9.126;2023-04-06T08:41:37;13.40;;;11.37;;
665;SDS011;315;48.738;9.126;2023-04-06T08:44:03;11.83;;;10.57;;
665;SDS011;315;48.738;9.126;2023-04-06T08:46:30;13.47;;;10.97;;
665;SDS011;315;48.738;9.126;2023-04-06T08:48:59;11.60;;;10.40;;
665;SDS011;315;48.738;9.126;2023-04-06T08:51:25;13.40;;;12.10;;
665;SDS011;315;48.738;9.126;2023-04-06T08:53:55;11.73;;;10.53;;
665;SDS011;315;48.738;9.126;2023-04-06T08:56:22;19.80;;;13.00;;
665;SDS011;315;48.738;9.126;2023-04-06T08:58:48;13.03;;;11.77;;
665;SDS011;315;48.738;9.126;2023-04-06T09:01:15;13.20;;;11.90;;
665;SDS011;315;48.738;9.126;2023-04-06T09:03:45;13.73;;;12.33;;
665;SDS011;315;48.738;9.126;2023-04-06T09:06:12;11.10;;;10.10;;
665;SDS011;315;48.738;9.126;2023-04-06T09:08:39;13.00;;;11.50;;
665;SDS011;315;48.738;9.126;2023-04-06T09:11:05;12.40;;;11.10;;
665;SDS011;315;48.738;9.126;2023-04-06T09:13:31;12.77;;;10.70;;
665;SDS011;315;48.738;9.126;2023-04-06T09:18:30;9.37;;;8.57;;
665;SDS011;315;48.738;9.126;2023-04-06T09:21:00;12.20;;;11.00;;
665;SDS011;315;48.738;9.126;2023-04-06T09:23:27;12.67;;;11.53;;
665;SDS011;315;48.738;9.126;2023-04-06T09:26:04;10.50;;;9.60;;
665;SDS011;315;48.738;9.126;2023-04-06T09:28:40;12.13;;;10.10;;
665;SDS011;315;48.738;9.126;2023-04-06T09:31:16;12.33;;;11.20;;
665;SDS011;315;48.738;9.126;2023-04-06T09:33:50;12.20;;;10.93;;
665;SDS011;315;48.738;9.126;2023-04-06T09:36:17;12.57;;;11.37;;
665;SDS011;315;48.738;9.126;2023-04-06T09:38:53;11.57;;;10.57;;
665;SDS011;315;48.738;9.126;2023-04-06T09:41:32;14.87;;;13.57;;
665;SDS011;315;48.738;9.126;2023-04-06T09:44:06;13.23;;;12.10;;
665;SDS011;315;48.738;9.126;2023-04-06T09:46:45;12.40;;;11.00;;
665;SDS011;315;48.738;9.126;2023-04-06T09:49:11;11.87;;;10.70;;
665;SDS011;315;48.738;9.126;2023-04-06T09:51:41;12.00;;;10.90;;
665;SDS011;315;48.738;9.126;2023-04-06T09:54:18;16.10;;;11.67;;
665;SDS011;315;48.738;9.126;2023-04-06T10:00:06;10.60;;;9.77;;
665;SDS011;315;48.738;9.126;2023-04-06T10:02:14;10.60;;;9.60;;
665;SDS011;315;48.738;9.126;2023-04-06T10:04:51;9.77;;;8.97;;
665;SDS011;315;48.738;9.126;2023-04-06T10:07:21;9.57;;;8.50;;
665;SDS011;315;48.738;9.126;2023-04-06T10:09:47;10.00;;;9.20;;
665;SDS011;315;48.738;9.126;2023-04-06T10:12:14;10.50;;;9.70;;
665;SDS011;315;48.738;9.126;2023-04-06T10:14:40;10.03;;;9.10;;
665;SDS011;315;48.738;9.126;2023-04-06T10:17:07;11.67;;;10.67;;
665;SDS011;315;48.738;9.126;2023-04-06T10:19:40;12.60;;;11.33;;
665;SDS011;315;48.738;9.126;2023-04-06T10:22:07;10.83;;;9.93;;
665;SDS011;315;48.738;9.126;2023-04-06T10:24:35;9.80;;;9.00;;
665;SDS011;315;48.738;9.126;2023-04-06T10:27:01;10.63;;;9.83;;
665;SDS011;315;48.738;9.126;2023-04-06T10:29:28;10.13;;;9.37;;
665;SDS011;315;48.738;9.126;2023-04-06T10:32:08;11.03;;;10.13;;
665;SDS011;315;48.738;9.126;2023-04-06T10:34:34;9.73;;;8.93;;
665;SDS011;315;48.738;9.126;2023-04-06T10:37:10;10.73;;;9.83;;
665;SDS011;315;48.738;9.126;2023-04-06T10:39:45;9.23;;;8.43;;
665;SDS011;315;48.738;9.126;2023-04-06T10:42:20;10.40;;;9.60;;
665;SDS011;315;48.738;9.126;2023-04-06T10:44:49;9.80;;;8.90;;
665;SDS011;315;48.738;9.126;2023-04-06T10:47:15;10.30;;;9.50;;
665;SDS011;315;48.738;9.126;2023-04-06T10:49:44;10.67;;;9.87;;
665;SDS011;315;48.738;9.126;2023-04-06T10:52:09;11.10;;;10.30;;
665;SDS011;315;48.738;9.126;2023-04-06T10:54:36;10.40;;;9.70;;
665;SDS011;315;48.738;9.126;2023-04-06T10:57:08;11.77;;;10.70;;
665;SDS011;315;48.738;9.126;2023-04-06T10:59:34;11.33;;;10.30;;
665;SDS011;315;48.738;9.126;2023-04-06T11:02:00;9.63;;;8.83;;
665;SDS011;315;48.738;9.126;2023-04-06T11:04:25;10.53;;;9.73;;
665;SDS011;315;48.738;9.126;2023-04-06T11:06:51;11.37;;;10.47;;
665;SDS011;315;48.738;9.126;2023-04-06T11:09:29;10.93;;;10.07;;
665;SDS011;315;48.738;9.126;2023-04-06T11:11:56;11.10;;;10.23;;
665;SDS011;315;48.738;9.126;2023-04-06T11:14:22;10.77;;;9.87;;
665;SDS011;315;48.738;9.126;2023-04-06T11:16:47;11.40;;;10.40;;
665;SDS011;315;48.738;9.126;2023-04-06T11:19:14;11.10;;;10.20;;
665;SDS011;315;48.738;9.126;2023-04-06T11:24:14;10.53;;;9.73;;
665;SDS011;315;48.738;9.126;2023-04-06T11:26:42;11.07;;;10.07;;
665;SDS011;315;48.738;9.126;2023-04-06T11:29:16;9.97;;;9.07;;
665;SDS011;315;48.738;9.126;2023-04-06T11:31:47;10.70;;;9.80;;
665;SDS011;315;48.738;9.126;2023-04-06T11:34:23;9.53;;;8.73;;
665;SDS011;315;48.738;9.126;2023-04-06T11:36:53;9.57;;;8.77;;
665;SDS011;315;48.738;9.126;2023-04-06T11:39:22;9.87;;;9.07;;
665;SDS011;315;48.738;9.126;2023-04-06T11:42:10;9.37;;;8.67;;
665;SDS011;315;48.738;9.126;2023-04-06T11:47:04;10.77;;;9.67;;
665;SDS011;315;48.738;9.126;2023-04-06T11:49:31;9.90;;;9.03;;
665;SDS011;315;48.738;9.126;2023-04-06T11:51:58;10.57;;;9.63;;
665;SDS011;315;48.738;9.126;2023-04-06T11:54:34;9.90;;;9.10;;
665;SDS011;315;48.738;9.126;2023-04-06T11:57:01;10.70;;;9.77;;
665;SDS011;315;48.738;9.126;2023-04-06T11:59:27;10.57;;;9.40;;
665;SDS011;315;48.738;9.126;2023-04-06T12:01:53;9.20;;;8.50;;
665;SDS011;315;48.738;9.126;2023-04-06T12:04:19;10.27;;;9.37;;
665;SDS011;315;48.738;9.126;2023-04-06T12:06:45;9.87;;;9.10;;
665;SDS011;315;48.738;9.126;2023-04-06T12:09:11;9.87;;;9.07;;
665;SDS011;315;48.738;9.126;2023-04-06T12:11:36;9.33;;;8.63;;
665;SDS011;315;48.738;9.126;2023-04-06T12:14:03;10.83;;;10.03;;
665;SDS011;315;48.738;9.126;2023-04-06T12:16:30;9.47;;;8.67;;
665;SDS011;315;48.738;9.126;2023-04-06T12:18:56;10.53;;;9.20;;
665;SDS011;315;48.738;9.126;2023-04-06T12:21:22;9.80;;;9.00;;
665;SDS011;315;48.738;9.126;2023-04-06T12:23:47;10.13;;;9.27;;
665;SDS011;315;48.738;9.126;2023-04-06T12:26:13;10.43;;;9.67;;
665;SDS011;315;48.738;9.126;2023-04-06T12:28:38;10.50;;;9.10;;
665;SDS011;315;48.738;9.126;2023-04-06T12:31:04;11.17;;;10.27;;
665;SDS011;315;48.738;9.126;2023-04-06T12:33:29;9.33;;;8.63;;
665;SDS011;315;48.738;9.126;2023-04-06T12:35:55;9.87;;;9.07;;
665;SDS011;315;48.738;9.126;2023-04-06T12:38:21;9.23;;;8.53;;
665;SDS011;315;48.738;9.126;2023-04-06T12:40:47;9.30;;;8.60;;
665;SDS011;315;48.738;9.126;2023-04-06T12:43:12;9.40;;;8.60;;
665;SDS011;315;48.738;9.126;2023-04-06T12:45:38;9.87;;;8.97;;
665;SDS011;315;48.738;9.126;2023-04-06T12:48:05;8.90;;;8.20;;
665;SDS011;315;48.738;9.126;2023-04-06T12:50:31;9.57;;;8.77;;
665;SDS011;315;48.738;9.126;2023-04-06T12:52:56;10.77;;;9.77;;
665;SDS011;315;48.738;9.126;2023-04-06T12:55:22;9.50;;;8.70;;
665;SDS011;315;48.738;9.126;2023-04-06T12:57:47;10.40;;;9.40;;
665;SDS011;315;48.738;9.126;2023-04-06T13:00:13;9.63;;;8.70;;
665;SDS011;315;48.738;9.126;2023-04-06T13:02:39;9.77;;;8.80;;
665;SDS011;315;48.738;9.126;2023-04-06T13:05:11;8.60;;;7.90;;
665;SDS011;315;48.738;9.126;2023-04-06T13:07:37;9.70;;;8.70;;
665;SDS011;315;48.738;9.126;2023-04-06T13:10:02;9.13;;;8.20;;
665;SDS011;315;48.738;9.126;2023-04-06T13:12:28;9.73;;;8.83;;
665;SDS011;315;48.738;9.126;2023-04-06T13:14:54;8.80;;;8.00;;
665;SDS011;315;48.738;9.126;2023-04-06T13:17:19;9.63;;;8.83;;
665;SDS011;315;48.738;9.126;2023-04-06T13:19:46;9.87;;;9.00;;
665;SDS011;315;48.738;9.126;2023-04-06T13:22:11;9.20;;;8.37;;
665;SDS011;315;48.738;9.126;2023-04-06T13:24:37;10.53;;;9.40;;
665;SDS011;315;48.738;9.126;2023-04-06T13:27:02;10.13;;;9.33;;
665;SDS011;315;48.738;9.126;2023-04-06T13:29:28;9.50;;;8.70;;
665;SDS011;315;48.738;9.126;2023-04-06T13:31:53;9.77;;;8.97;;
665;SDS011;315;48.738;9.126;2023-04-06T13:34:19;9.63;;;8.83;;
665;SDS011;315;48.738;9.126;2023-04-06T13:36:44;11.60;;;8.23;;
665;SDS011;315;48.738;9.126;2023-04-06T13:39:10;9.27;;;8.33;;
665;SDS011;315;48.738;9.126;2023-04-06T13:41:35;9.80;;;8.83;;
665;SDS011;315;48.738;9.126;2023-04-06T13:44:01;9.13;;;8.23;;
665;SDS011;315;48.738;9.126;2023-04-06T13:46:27;8.70;;;8.00;;
665;SDS011;315;48.738;9.126;2023-04-06T13:48:52;8.80;;;8.10;;
665;SDS011;315;48.738;9.126;2023-04-06T13:51:18;10.93;;;7.80;;
665;SDS011;315;48.738;9.126;2023-04-06T13:53:43;10.00;;;9.07;;
665;SDS011;315;48.738;9.126;2023-04-06T13:56:09;9.43;;;8.53;;
665;SDS011;315;48.738;9.126;2023-04-06T13:58:35;8.87;;;8.07;;
665;SDS011;315;48.738;9.126;2023-04-06T14:01:01;10.13;;;9.10;;
665;SDS011;315;48.738;9.126;2023-04-06T14:03:34;10.60;;;8.30;;
665;SDS011;315;48.738;9.126;2023-04-06T14:06:00;10.23;;;9.20;;
665;SDS011;315;48.738;9.126;2023-04-06T14:08:26;9.00;;;8.30;;
665;SDS011;315;48.738;9.126;2023-04-06T14:10:52;9.77;;;8.80;;
665;SDS011;315;48.738;9.126;2023-04-06T14:13:19;9.93;;;8.97;;
665;SDS011;315;48.738;9.126;2023-04-06T14:15:44;9.17;;;8.23;;
665;SDS011;315;48.738;9.126;2023-04-06T14:18:10;9.30;;;8.50;;
665;SDS011;315;48.738;9.126;2023-04-06T14:20:35;8.63;;;7.93;;
665;SDS011;315;48.738;9.126;2023-04-06T14:23:01;9.07;;;7.57;;
665;SDS011;315;48.738;9.126;2023-04-06T14:25:27;8.50;;;7.60;;
665;SDS011;315;48.738;9.126;2023-04-06T14:27:53;9.47;;;8.63;;
665;SDS011;315;48.738;9.126;2023-04-06T14:30:19;8.90;;;8.00;;
665;SDS011;315;48.738;9.126;2023-04-06T14:32:44;8.90;;;8.10;;
665;SDS011;315;48.738;9.126;2023-04-06T14:35:10;8.33;;;7.53;;
665;SDS011;315;48.738;9.126;2023-04-06T14:37:36;9.43;;;8.60;;
665;SDS011;315;48.738;9.126;2023-04-06T14:40:04;11.03;;;8.50;;
665;SDS011;315;48.738;9.126;2023-04-06T14:42:30;9.13;;;8.30;;
665;SDS011;315;48.738;9.126;2023-04-06T14:44:56;9.27;;;8.47;;
665;SDS011;315;48.738;9.126;2023-04-06T14:47:22;8.77;;;7.97;;
665;SDS011;315;48.738;9.126;2023-04-06T14:49:49;9.13;;;8.43;;
665;SDS011;315;48.738;9.126;2023-04-06T14:52:16;9.47;;;8.77;;
665;SDS011;315;48.738;9.126;2023-04-06T14:54:42;9.50;;;8.70;;
665;SDS011;315;48.738;9.126;2023-04-06T14:57:07;8.47;;;7.70;;
665;SDS011;315;48.738;9.126;2023-04-06T14:59:33;8.83;;;8.03;;
665;SDS011;315;48.738;9.126;2023-04-06T15:01:59;9.60;;;8.73;;
665;SDS011;315;48.738;9.126;2023-04-06T15:04:28;9.50;;;8.60;;
665;SDS011;315;48.738;9.126;2023-04-06T15:06:54;9.40;;;8.47;;
665;SDS011;315;48.738;9.126;2023-04-06T15:09:20;8.47;;;7.20;;
665;SDS011;315;48.738;9.126;2023-04-06T15:11:46;8.43;;;7.63;;
665;SDS011;315;48.738;9.126;2023-04-06T15:14:12;7.00;;;6.40;;
665;SDS011;315;48.738;9.126;2023-04-06T15:16:37;7.17;;;6.57;;
665;SDS011;315;48.738;9.126;2023-04-06T15:19:03;7.10;;;6.40;;
665;SDS011;315;48.738;9.126;2023-04-06T15:21:28;7.57;;;6.90;;
665;SDS011;315;48.738;9.126;2023-04-06T15:23:55;8.43;;;7.70;;
665;SDS011;315;48.738;9.126;2023-04-06T15:26:20;7.87;;;7.20;;
665;SDS011;315;48.738;9.126;2023-04-06T15:28:46;6.60;;;6.00;;
665;SDS011;315;48.738;9.126;2023-04-06T15:31:15;8.03;;;7.43;;